メインページ
METAR-TAF:

METAR-TAF

空港 :

Oscoda-Wurtsmith Airport

Oscoda, ミシガン州, アメリカ合衆国

緯度: 44-27N, 経度: 083-22W, 海抜: 193m

現時点の気象観測

当レポートは23分前の14:16(UTC)に作成
西の風 6kt
気温 28°C
湿度 58%
気圧 1008 hPa
視程: 16.1km
晴天

METAR: KOSC 201416Z AUTO 28006KT 10SM CLR 28/19 A2978 RMK AO2 T02770187

時間: 10:39 (14:39 UTC)


TAF: 見つかりません

4,000以上の空港の気象観測と天気予報(METAR報とTAF報)

利用可能な観測所は地図上に黄色い丸と赤い丸で示す。

丸の上にカーソルを重ねると観測所名を参照できる。

次にクリックすると気象観測と天気予報を参照できる。

マップの切り替え:黒色「×」印の緑ボタンをクリックして拡大、「-」印の緑ボタンをクリックして縮小、緑色の三角印をクリックして隣りの地図に切り替え


METAR-TAF: